sensor_id;sensor_type;location;lat;lon;timestamp;pressure;altitude;pressure_sealevel;temperature;humidity
73700;BME280;62005;50.082;8.988;2024-03-08T00:00:34;100727.44;;;5.55;68.99
73700;BME280;62005;50.082;8.988;2024-03-08T00:02:59;100731.16;;;5.54;69.19
73700;BME280;62005;50.082;8.988;2024-03-08T00:05:27;100731.50;;;5.51;68.45
73700;BME280;62005;50.082;8.988;2024-03-08T00:07:53;100725.50;;;5.49;68.83
73700;BME280;62005;50.082;8.988;2024-03-08T00:10:18;100712.22;;;5.32;68.45
73700;BME280;62005;50.082;8.988;2024-03-08T00:12:46;100723.59;;;5.34;69.27
73700;BME280;62005;50.082;8.988;2024-03-08T00:15:13;100720.69;;;5.21;69.16
73700;BME280;62005;50.082;8.988;2024-03-08T00:17:40;100700.97;;;5.14;69.83
73700;BME280;62005;50.082;8.988;2024-03-08T00:20:06;100712.94;;;5.26;69.61
73700;BME280;62005;50.082;8.988;2024-03-08T00:22:37;100728.22;;;5.41;68.79
73700;BME280;62005;50.082;8.988;2024-03-08T00:25:06;100728.50;;;5.46;68.88
73700;BME280;62005;50.082;8.988;2024-03-08T00:27:38;100727.88;;;5.44;68.37
73700;BME280;62005;50.082;8.988;2024-03-08T00:30:04;100710.38;;;5.33;68.83
73700;BME280;62005;50.082;8.988;2024-03-08T00:32:30;100715.19;;;5.38;68.96
73700;BME280;62005;50.082;8.988;2024-03-08T00:34:57;100719.66;;;5.45;68.50
73700;BME280;62005;50.082;8.988;2024-03-08T00:37:22;100714.13;;;5.47;68.87
73700;BME280;62005;50.082;8.988;2024-03-08T00:39:51;100699.75;;;5.40;68.94
73700;BME280;62005;50.082;8.988;2024-03-08T00:42:17;100719.28;;;5.48;68.57
73700;BME280;62005;50.082;8.988;2024-03-08T00:44:43;100706.38;;;5.52;68.45
73700;BME280;62005;50.082;8.988;2024-03-08T00:47:09;100713.19;;;5.54;68.30
73700;BME280;62005;50.082;8.988;2024-03-08T00:49:35;100708.84;;;5.39;68.01
73700;BME280;62005;50.082;8.988;2024-03-08T00:52:02;100712.81;;;5.43;69.20
73700;BME280;62005;50.082;8.988;2024-03-08T00:54:27;100712.31;;;5.39;68.67
73700;BME280;62005;50.082;8.988;2024-03-08T00:56:53;100683.91;;;5.15;68.84
73700;BME280;62005;50.082;8.988;2024-03-08T00:59:18;100692.88;;;5.22;69.02
73700;BME280;62005;50.082;8.988;2024-03-08T01:01:44;100704.97;;;5.18;69.35
73700;BME280;62005;50.082;8.988;2024-03-08T01:04:10;100688.78;;;5.12;69.64
73700;BME280;62005;50.082;8.988;2024-03-08T01:06:36;100691.00;;;5.08;69.97
73700;BME280;62005;50.082;8.988;2024-03-08T01:09:02;100689.91;;;5.17;69.93
73700;BME280;62005;50.082;8.988;2024-03-08T01:11:28;100678.28;;;5.02;70.30
73700;BME280;62005;50.082;8.988;2024-03-08T01:13:54;100671.28;;;5.01;70.50
73700;BME280;62005;50.082;8.988;2024-03-08T01:16:19;100667.31;;;4.97;70.55
73700;BME280;62005;50.082;8.988;2024-03-08T01:18:47;100676.22;;;4.90;70.74
73700;BME280;62005;50.082;8.988;2024-03-08T01:21:13;100677.38;;;4.95;70.91
73700;BME280;62005;50.082;8.988;2024-03-08T01:23:38;100658.69;;;4.87;71.17
73700;BME280;62005;50.082;8.988;2024-03-08T01:26:04;100661.06;;;4.82;71.65
73700;BME280;62005;50.082;8.988;2024-03-08T01:28:30;100672.09;;;4.79;71.24
73700;BME280;62005;50.082;8.988;2024-03-08T01:30:55;100664.44;;;4.76;71.99
73700;BME280;62005;50.082;8.988;2024-03-08T01:33:25;100659.63;;;4.72;72.58
73700;BME280;62005;50.082;8.988;2024-03-08T01:35:54;100669.84;;;4.68;71.91
73700;BME280;62005;50.082;8.988;2024-03-08T01:38:20;100651.09;;;4.68;72.14
73700;BME280;62005;50.082;8.988;2024-03-08T01:40:49;100654.56;;;4.77;72.19
73700;BME280;62005;50.082;8.988;2024-03-08T01:43:34;100651.63;;;4.86;72.67
73700;BME280;62005;50.082;8.988;2024-03-08T01:46:00;100641.03;;;4.93;72.22
73700;BME280;62005;50.082;8.988;2024-03-08T01:48:29;100647.25;;;4.93;71.67
73700;BME280;62005;50.082;8.988;2024-03-08T01:50:57;100646.94;;;4.88;71.57
73700;BME280;62005;50.082;8.988;2024-03-08T01:53:24;100638.19;;;4.94;72.07
73700;BME280;62005;50.082;8.988;2024-03-08T01:55:52;100629.50;;;4.92;71.90
73700;BME280;62005;50.082;8.988;2024-03-08T01:58:19;100628.78;;;4.98;72.62
73700;BME280;62005;50.082;8.988;2024-03-08T02:00:48;100615.47;;;4.90;71.41
73700;BME280;62005;50.082;8.988;2024-03-08T02:03:17;100637.84;;;4.97;71.60
73700;BME280;62005;50.082;8.988;2024-03-08T02:05:42;100625.81;;;4.93;71.46
73700;BME280;62005;50.082;8.988;2024-03-08T02:08:09;100627.00;;;4.91;71.93
73700;BME280;62005;50.082;8.988;2024-03-08T02:10:44;100621.19;;;4.87;71.95
73700;BME280;62005;50.082;8.988;2024-03-08T02:13:10;100611.91;;;4.75;72.27
73700;BME280;62005;50.082;8.988;2024-03-08T02:15:56;100621.78;;;4.75;72.43
73700;BME280;62005;50.082;8.988;2024-03-08T02:18:24;100614.75;;;4.74;72.57
73700;BME280;62005;50.082;8.988;2024-03-08T02:20:56;100613.91;;;4.73;73.20
73700;BME280;62005;50.082;8.988;2024-03-08T02:23:22;100597.63;;;4.60;73.15
73700;BME280;62005;50.082;8.988;2024-03-08T02:25:52;100593.06;;;4.46;74.13
73700;BME280;62005;50.082;8.988;2024-03-08T02:28:19;100588.94;;;4.36;74.37
73700;BME280;62005;50.082;8.988;2024-03-08T02:30:49;100589.97;;;4.27;75.12
73700;BME280;62005;50.082;8.988;2024-03-08T02:33:16;100580.47;;;4.24;75.55
73700;BME280;62005;50.082;8.988;2024-03-08T02:35:44;100585.97;;;4.31;75.46
73700;BME280;62005;50.082;8.988;2024-03-08T02:38:14;100600.81;;;4.33;75.96
73700;BME280;62005;50.082;8.988;2024-03-08T02:40:42;100599.56;;;4.21;76.59
73700;BME280;62005;50.082;8.988;2024-03-08T02:43:11;100578.81;;;4.23;76.19
73700;BME280;62005;50.082;8.988;2024-03-08T02:45:37;100589.78;;;4.36;75.70
73700;BME280;62005;50.082;8.988;2024-03-08T02:48:04;100582.09;;;4.33;75.84
73700;BME280;62005;50.082;8.988;2024-03-08T02:50:32;100581.09;;;4.34;76.05
73700;BME280;62005;50.082;8.988;2024-03-08T02:52:57;100590.94;;;4.34;75.23
73700;BME280;62005;50.082;8.988;2024-03-08T02:55:23;100584.44;;;4.36;75.72
73700;BME280;62005;50.082;8.988;2024-03-08T02:57:51;100587.41;;;4.41;75.74
73700;BME280;62005;50.082;8.988;2024-03-08T03:00:16;100588.03;;;4.43;75.30
73700;BME280;62005;50.082;8.988;2024-03-08T03:02:45;100575.00;;;4.40;75.48
73700;BME280;62005;50.082;8.988;2024-03-08T03:05:10;100588.03;;;4.43;75.73
73700;BME280;62005;50.082;8.988;2024-03-08T03:07:37;100578.72;;;4.39;75.36
73700;BME280;62005;50.082;8.988;2024-03-08T03:10:03;100581.69;;;4.44;76.31
73700;BME280;62005;50.082;8.988;2024-03-08T03:12:29;100566.69;;;4.35;76.03
73700;BME280;62005;50.082;8.988;2024-03-08T03:14:56;100572.41;;;4.32;75.89
73700;BME280;62005;50.082;8.988;2024-03-08T03:17:25;100564.72;;;4.29;76.30
73700;BME280;62005;50.082;8.988;2024-03-08T03:19:51;100571.38;;;4.33;75.95
73700;BME280;62005;50.082;8.988;2024-03-08T03:22:18;100561.41;;;4.27;76.69
73700;BME280;62005;50.082;8.988;2024-03-08T03:24:44;100563.47;;;4.17;76.99
73700;BME280;62005;50.082;8.988;2024-03-08T03:27:12;100549.78;;;4.12;76.91
73700;BME280;62005;50.082;8.988;2024-03-08T03:29:41;100562.16;;;4.13;77.08
73700;BME280;62005;50.082;8.988;2024-03-08T03:32:13;100559.50;;;4.05;77.32
73700;BME280;62005;50.082;8.988;2024-03-08T03:34:39;100563.34;;;4.11;77.20
73700;BME280;62005;50.082;8.988;2024-03-08T03:37:05;100565.16;;;4.10;77.49
73700;BME280;62005;50.082;8.988;2024-03-08T03:39:33;100552.50;;;4.04;77.83
73700;BME280;62005;50.082;8.988;2024-03-08T03:42:14;100557.88;;;4.04;77.79
73700;BME280;62005;50.082;8.988;2024-03-08T03:44:40;100536.56;;;3.88;78.05
73700;BME280;62005;50.082;8.988;2024-03-08T03:47:05;100563.56;;;4.01;78.10
73700;BME280;62005;50.082;8.988;2024-03-08T03:49:32;100549.53;;;3.99;78.14
73700;BME280;62005;50.082;8.988;2024-03-08T03:51:58;100568.22;;;4.07;78.13
73700;BME280;62005;50.082;8.988;2024-03-08T03:54:24;100551.53;;;3.97;78.53
73700;BME280;62005;50.082;8.988;2024-03-08T03:56:49;100552.25;;;3.91;78.36
73700;BME280;62005;50.082;8.988;2024-03-08T03:59:18;100538.94;;;3.83;78.70
73700;BME280;62005;50.082;8.988;2024-03-08T04:01:44;100551.28;;;3.84;79.29
73700;BME280;62005;50.082;8.988;2024-03-08T04:04:09;100544.28;;;3.83;79.27
73700;BME280;62005;50.082;8.988;2024-03-08T04:06:35;100541.44;;;3.84;78.96
73700;BME280;62005;50.082;8.988;2024-03-08T04:09:00;100534.28;;;3.77;79.31
73700;BME280;62005;50.082;8.988;2024-03-08T04:11:26;100530.59;;;3.78;79.36
73700;BME280;62005;50.082;8.988;2024-03-08T04:13:51;100537.59;;;3.79;79.30
73700;BME280;62005;50.082;8.988;2024-03-08T04:16:18;100535.13;;;3.77;79.89
73700;BME280;62005;50.082;8.988;2024-03-08T04:18:44;100540.22;;;3.87;79.34
73700;BME280;62005;50.082;8.988;2024-03-08T04:21:09;100539.19;;;3.96;79.42
73700;BME280;62005;50.082;8.988;2024-03-08T04:23:35;100540.84;;;3.97;78.99
73700;BME280;62005;50.082;8.988;2024-03-08T04:26:02;100534.22;;;3.93;78.95
73700;BME280;62005;50.082;8.988;2024-03-08T04:28:29;100541.22;;;3.94;78.91
73700;BME280;62005;50.082;8.988;2024-03-08T04:30:55;100538.84;;;3.99;78.58
73700;BME280;62005;50.082;8.988;2024-03-08T04:33:20;100530.16;;;3.97;78.77
73700;BME280;62005;50.082;8.988;2024-03-08T04:35:47;100534.34;;;3.99;78.63
73700;BME280;62005;50.082;8.988;2024-03-08T04:38:12;100531.00;;;3.97;78.56
73700;BME280;62005;50.082;8.988;2024-03-08T04:40:38;100532.16;;;3.95;78.98
73700;BME280;62005;50.082;8.988;2024-03-08T04:43:03;100530.50;;;3.94;79.26
73700;BME280;62005;50.082;8.988;2024-03-08T04:45:29;100512.56;;;3.80;78.95
73700;BME280;62005;50.082;8.988;2024-03-08T04:47:54;100505.28;;;3.66;79.36
73700;BME280;62005;50.082;8.988;2024-03-08T04:50:20;100528.59;;;3.80;79.43
73700;BME280;62005;50.082;8.988;2024-03-08T04:52:46;100509.31;;;3.62;79.11
73700;BME280;62005;50.082;8.988;2024-03-08T04:55:11;100527.63;;;3.73;79.52
73700;BME280;62005;50.082;8.988;2024-03-08T04:57:37;100515.47;;;3.62;79.66
73700;BME280;62005;50.082;8.988;2024-03-08T05:00:03;100522.63;;;3.70;79.65
73700;BME280;62005;50.082;8.988;2024-03-08T05:02:35;100501.31;;;3.54;79.81
73700;BME280;62005;50.082;8.988;2024-03-08T05:05:01;100516.00;;;3.58;80.53
73700;BME280;62005;50.082;8.988;2024-03-08T05:07:27;100516.34;;;3.55;80.77
73700;BME280;62005;50.082;8.988;2024-03-08T05:09:52;100524.06;;;3.50;80.87
73700;BME280;62005;50.082;8.988;2024-03-08T05:12:18;100519.25;;;3.45;80.09
73700;BME280;62005;50.082;8.988;2024-03-08T05:14:45;100518.44;;;3.37;80.66
73700;BME280;62005;50.082;8.988;2024-03-08T05:17:14;100515.28;;;3.33;80.84
73700;BME280;62005;50.082;8.988;2024-03-08T05:19:40;100524.13;;;3.34;81.19
73700;BME280;62005;50.082;8.988;2024-03-08T05:22:05;100523.31;;;3.25;81.57
73700;BME280;62005;50.082;8.988;2024-03-08T05:24:31;100489.84;;;2.99;81.69
73700;BME280;62005;50.082;8.988;2024-03-08T05:26:56;100520.19;;;3.14;81.84
73700;BME280;62005;50.082;8.988;2024-03-08T05:29:22;100500.53;;;2.99;81.70
73700;BME280;62005;50.082;8.988;2024-03-08T05:31:50;100519.19;;;3.07;82.21
73700;BME280;62005;50.082;8.988;2024-03-08T05:34:17;100494.19;;;2.92;82.69
73700;BME280;62005;50.082;8.988;2024-03-08T05:36:45;100497.53;;;2.94;82.49
73700;BME280;62005;50.082;8.988;2024-03-08T05:39:15;100510.53;;;2.97;82.79
73700;BME280;62005;50.082;8.988;2024-03-08T05:41:41;100493.72;;;2.88;82.39
73700;BME280;62005;50.082;8.988;2024-03-08T05:44:07;100512.72;;;2.93;82.70
73700;BME280;62005;50.082;8.988;2024-03-08T05:46:33;100501.22;;;2.85;83.27
73700;BME280;62005;50.082;8.988;2024-03-08T05:48:59;100492.56;;;2.75;82.95
73700;BME280;62005;50.082;8.988;2024-03-08T05:51:25;100502.56;;;2.81;83.01
73700;BME280;62005;50.082;8.988;2024-03-08T05:53:53;100504.56;;;2.79;82.96
73700;BME280;62005;50.082;8.988;2024-03-08T05:56:19;100500.88;;;2.80;83.02
73700;BME280;62005;50.082;8.988;2024-03-08T05:58:44;100507.91;;;2.81;83.24
73700;BME280;62005;50.082;8.988;2024-03-08T06:01:11;100511.25;;;2.83;83.68
73700;BME280;62005;50.082;8.988;2024-03-08T06:03:38;100507.56;;;2.84;83.71
73700;BME280;62005;50.082;8.988;2024-03-08T06:06:12;100499.59;;;2.76;83.79
73700;BME280;62005;50.082;8.988;2024-03-08T06:08:38;100503.56;;;2.80;83.99
73700;BME280;62005;50.082;8.988;2024-03-08T06:11:03;100498.06;;;2.73;84.77
73700;BME280;62005;50.082;8.988;2024-03-08T06:13:29;100479.56;;;2.63;85.08
73700;BME280;62005;50.082;8.988;2024-03-08T06:15:56;100474.25;;;2.55;85.70
73700;BME280;62005;50.082;8.988;2024-03-08T06:18:22;100484.22;;;2.69;85.76
73700;BME280;62005;50.082;8.988;2024-03-08T06:20:47;100488.38;;;2.80;85.74
73700;BME280;62005;50.082;8.988;2024-03-08T06:23:13;100499.88;;;2.89;85.83
73700;BME280;62005;50.082;8.988;2024-03-08T06:25:43;100478.22;;;2.76;86.13
73700;BME280;62005;50.082;8.988;2024-03-08T06:28:09;100505.19;;;2.97;86.78
73700;BME280;62005;50.082;8.988;2024-03-08T06:30:34;100501.84;;;3.03;86.51
73700;BME280;62005;50.082;8.988;2024-03-08T06:33:00;100491.31;;;3.09;86.82
73700;BME280;62005;50.082;8.988;2024-03-08T06:35:25;100490.06;;;3.28;87.48
73700;BME280;62005;50.082;8.988;2024-03-08T06:37:51;100481.06;;;3.29;86.23
73700;BME280;62005;50.082;8.988;2024-03-08T06:40:16;100469.91;;;3.25;85.49
73700;BME280;62005;50.082;8.988;2024-03-08T06:42:42;100473.38;;;3.34;85.27
73700;BME280;62005;50.082;8.988;2024-03-08T06:45:08;100470.97;;;3.39;85.54
73700;BME280;62005;50.082;8.988;2024-03-08T06:47:36;100474.31;;;3.41;85.86
73700;BME280;62005;50.082;8.988;2024-03-08T06:50:02;100481.25;;;3.58;85.27
73700;BME280;62005;50.082;8.988;2024-03-08T06:52:29;100482.59;;;3.62;84.94
73700;BME280;62005;50.082;8.988;2024-03-08T06:54:54;100487.84;;;3.78;85.00
73700;BME280;62005;50.082;8.988;2024-03-08T06:57:20;100467.13;;;3.72;84.61
73700;BME280;62005;50.082;8.988;2024-03-08T06:59:48;100475.13;;;3.80;84.25
73700;BME280;62005;50.082;8.988;2024-03-08T07:02:13;100472.09;;;3.83;83.48
73700;BME280;62005;50.082;8.988;2024-03-08T07:04:39;100464.06;;;3.83;83.62
73700;BME280;62005;50.082;8.988;2024-03-08T07:07:05;100454.56;;;3.80;83.35
73700;BME280;62005;50.082;8.988;2024-03-08T07:09:30;100450.84;;;3.89;82.76
73700;BME280;62005;50.082;8.988;2024-03-08T07:11:56;100449.56;;;4.00;82.11
73700;BME280;62005;50.082;8.988;2024-03-08T07:14:23;100449.69;;;4.07;81.89
73700;BME280;62005;50.082;8.988;2024-03-08T07:16:49;100445.75;;;4.17;81.44
73700;BME280;62005;50.082;8.988;2024-03-08T07:19:14;100428.75;;;4.10;81.28
73700;BME280;62005;50.082;8.988;2024-03-08T07:21:41;100465.97;;;4.42;81.34
73700;BME280;62005;50.082;8.988;2024-03-08T07:24:07;100422.34;;;4.19;81.61
73700;BME280;62005;50.082;8.988;2024-03-08T07:26:41;100411.28;;;4.22;81.77
73700;BME280;62005;50.082;8.988;2024-03-08T07:29:07;100466.28;;;4.62;80.92
73700;BME280;62005;50.082;8.988;2024-03-08T07:31:33;100440.34;;;4.62;80.01
73700;BME280;62005;50.082;8.988;2024-03-08T07:34:17;100453.84;;;4.83;80.46
73700;BME280;62005;50.082;8.988;2024-03-08T07:36:43;100450.06;;;4.92;79.14
73700;BME280;62005;50.082;8.988;2024-03-08T07:39:08;100438.31;;;4.93;78.47
73700;BME280;62005;50.082;8.988;2024-03-08T07:41:38;100449.97;;;5.00;77.78
73700;BME280;62005;50.082;8.988;2024-03-08T07:44:10;100442.56;;;5.02;78.21
73700;BME280;62005;50.082;8.988;2024-03-08T07:46:39;100452.25;;;5.18;78.51
73700;BME280;62005;50.082;8.988;2024-03-08T07:49:06;100430.00;;;5.17;78.05
73700;BME280;62005;50.082;8.988;2024-03-08T07:51:32;100416.41;;;5.19;77.78
73700;BME280;62005;50.082;8.988;2024-03-08T07:53:59;100416.13;;;5.28;77.52
73700;BME280;62005;50.082;8.988;2024-03-08T07:56:25;100422.84;;;5.39;76.32
73700;BME280;62005;50.082;8.988;2024-03-08T07:58:51;100407.97;;;5.37;76.47
73700;BME280;62005;50.082;8.988;2024-03-08T08:01:17;100394.69;;;5.28;75.37
73700;BME280;62005;50.082;8.988;2024-03-08T08:03:43;100393.09;;;5.34;75.42
73700;BME280;62005;50.082;8.988;2024-03-08T08:06:09;100388.19;;;5.38;74.80
73700;BME280;62005;50.082;8.988;2024-03-08T08:08:41;100382.91;;;5.44;76.22
73700;BME280;62005;50.082;8.988;2024-03-08T08:11:07;100408.66;;;5.60;75.49
73700;BME280;62005;50.082;8.988;2024-03-08T08:13:35;100395.13;;;5.68;75.79
73700;BME280;62005;50.082;8.988;2024-03-08T08:16:02;100364.91;;;5.59;74.89
73700;BME280;62005;50.082;8.988;2024-03-08T08:18:28;100354.41;;;5.58;75.36
73700;BME280;62005;50.082;8.988;2024-03-08T08:20:55;100410.13;;;5.98;74.17
73700;BME280;62005;50.082;8.988;2024-03-08T08:23:30;100372.53;;;5.77;73.72
73700;BME280;62005;50.082;8.988;2024-03-08T08:25:56;100372.16;;;5.80;74.29
73700;BME280;62005;50.082;8.988;2024-03-08T08:28:22;100372.94;;;5.95;74.00
73700;BME280;62005;50.082;8.988;2024-03-08T08:30:47;100384.53;;;6.02;73.93
73700;BME280;62005;50.082;8.988;2024-03-08T08:33:14;100393.22;;;6.25;73.59
73700;BME280;62005;50.082;8.988;2024-03-08T08:35:40;100383.75;;;6.29;72.96
73700;BME280;62005;50.082;8.988;2024-03-08T08:38:06;100388.38;;;6.41;72.58
73700;BME280;62005;50.082;8.988;2024-03-08T08:40:33;100378.09;;;6.45;72.09
73700;BME280;62005;50.082;8.988;2024-03-08T08:42:59;100352.59;;;6.28;70.75
73700;BME280;62005;50.082;8.988;2024-03-08T08:45:25;100377.56;;;6.56;71.05
73700;BME280;62005;50.082;8.988;2024-03-08T08:47:56;100348.72;;;6.37;70.48
73700;BME280;62005;50.082;8.988;2024-03-08T08:50:28;100344.22;;;6.44;70.78
73700;BME280;62005;50.082;8.988;2024-03-08T08:53:00;100373.31;;;6.75;70.86
73700;BME280;62005;50.082;8.988;2024-03-08T08:55:27;100337.28;;;6.56;69.91
73700;BME280;62005;50.082;8.988;2024-03-08T08:58:02;100370.09;;;6.86;70.40
73700;BME280;62005;50.082;8.988;2024-03-08T09:00:28;100361.44;;;6.90;69.58
73700;BME280;62005;50.082;8.988;2024-03-08T09:02:56;100339.09;;;6.90;70.53
73700;BME280;62005;50.082;8.988;2024-03-08T09:05:23;100312.00;;;6.85;70.10
73700;BME280;62005;50.082;8.988;2024-03-08T09:07:49;100328.84;;;7.06;68.94
73700;BME280;62005;50.082;8.988;2024-03-08T09:10:15;100300.28;;;6.92;68.36
73700;BME280;62005;50.082;8.988;2024-03-08T09:12:44;100367.00;;;7.36;68.17
73700;BME280;62005;50.082;8.988;2024-03-08T09:15:12;100294.53;;;7.08;67.15
73700;BME280;62005;50.082;8.988;2024-03-08T09:17:38;100323.16;;;7.29;66.11
73700;BME280;62005;50.082;8.988;2024-03-08T09:20:09;100362.50;;;7.62;66.93
73700;BME280;62005;50.082;8.988;2024-03-08T09:22:46;100278.03;;;7.31;65.48
73700;BME280;62005;50.082;8.988;2024-03-08T09:25:11;100317.84;;;7.61;65.65
73700;BME280;62005;50.082;8.988;2024-03-08T09:27:37;100334.41;;;7.71;64.79
73700;BME280;62005;50.082;8.988;2024-03-08T09:30:03;100290.91;;;7.48;64.61
73700;BME280;62005;50.082;8.988;2024-03-08T09:32:29;100321.75;;;7.78;64.57
73700;BME280;62005;50.082;8.988;2024-03-08T09:34:55;100298.78;;;7.69;64.83
73700;BME280;62005;50.082;8.988;2024-03-08T09:37:21;100324.50;;;7.91;66.51
73700;BME280;62005;50.082;8.988;2024-03-08T09:39:47;100304.59;;;7.92;62.92
73700;BME280;62005;50.082;8.988;2024-03-08T09:42:15;100271.06;;;7.75;64.47
73700;BME280;62005;50.082;8.988;2024-03-08T09:44:45;100290.31;;;7.98;63.27
73700;BME280;62005;50.082;8.988;2024-03-08T09:47:13;100286.81;;;8.05;64.29
73700;BME280;62005;50.082;8.988;2024-03-08T09:49:41;100291.34;;;8.17;64.98
73700;BME280;62005;50.082;8.988;2024-03-08T09:52:09;100279.34;;;8.20;64.25
73700;BME280;62005;50.082;8.988;2024-03-08T09:54:36;100278.50;;;8.13;63.62
73700;BME280;62005;50.082;8.988;2024-03-08T09:57:04;100288.44;;;8.19;62.36
73700;BME280;62005;50.082;8.988;2024-03-08T09:59:29;100268.16;;;8.16;64.65
73700;BME280;62005;50.082;8.988;2024-03-08T10:02:15;100245.78;;;8.16;62.84
73700;BME280;62005;50.082;8.988;2024-03-08T10:04:42;100259.44;;;8.21;62.49
73700;BME280;62005;50.082;8.988;2024-03-08T10:07:07;100237.91;;;8.14;63.32
73700;BME280;62005;50.082;8.988;2024-03-08T10:09:33;100259.44;;;8.34;62.12
73700;BME280;62005;50.082;8.988;2024-03-08T10:11:59;100198.16;;;8.16;64.89
73700;BME280;62005;50.082;8.988;2024-03-08T10:14:27;100193.56;;;8.17;62.33
73700;BME280;62005;50.082;8.988;2024-03-08T10:16:58;100204.75;;;8.27;62.95
73700;BME280;62005;50.082;8.988;2024-03-08T10:19:26;100227.91;;;8.47;62.96
73700;BME280;62005;50.082;8.988;2024-03-08T10:21:52;100176.59;;;8.23;62.65
73700;BME280;62005;50.082;8.988;2024-03-08T10:24:24;100214.69;;;8.39;61.85
73700;BME280;62005;50.082;8.988;2024-03-08T10:26:58;100199.13;;;8.35;61.36
73700;BME280;62005;50.082;8.988;2024-03-08T10:29:24;100200.13;;;8.47;61.15
73700;BME280;62005;50.082;8.988;2024-03-08T10:31:50;100230.28;;;8.75;61.77
73700;BME280;62005;50.082;8.988;2024-03-08T10:34:19;100205.03;;;8.63;60.64
73700;BME280;62005;50.082;8.988;2024-03-08T10:36:45;100205.66;;;8.65;61.01
73700;BME280;62005;50.082;8.988;2024-03-08T10:39:36;100171.31;;;8.54;60.49
73700;BME280;62005;50.082;8.988;2024-03-08T10:42:05;100179.78;;;8.64;60.66
73700;BME280;62005;50.082;8.988;2024-03-08T10:47:03;100208.66;;;8.88;60.01
73700;BME280;62005;50.082;8.988;2024-03-08T10:49:38;100211.16;;;8.83;60.03
73700;BME280;62005;50.082;8.988;2024-03-08T10:52:05;100209.28;;;8.90;60.88
73700;BME280;62005;50.082;8.988;2024-03-08T10:54:34;100202.41;;;8.94;59.94
73700;BME280;62005;50.082;8.988;2024-03-08T10:57:05;100189.13;;;8.99;60.72
73700;BME280;62005;50.082;8.988;2024-03-08T10:59:30;100196.56;;;9.03;58.89
73700;BME280;62005;50.082;8.988;2024-03-08T11:01:57;100175.03;;;8.97;58.99
73700;BME280;62005;50.082;8.988;2024-03-08T11:04:22;100177.63;;;9.10;59.27
73700;BME280;62005;50.082;8.988;2024-03-08T11:06:50;100157.19;;;8.96;59.00
73700;BME280;62005;50.082;8.988;2024-03-08T11:09:31;100177.94;;;9.27;59.02
73700;BME280;62005;50.082;8.988;2024-03-08T11:14:47;100180.09;;;9.43;57.63
73700;BME280;62005;50.082;8.988;2024-03-08T11:17:20;100170.22;;;9.30;57.67
73700;BME280;62005;50.082;8.988;2024-03-08T11:19:49;100144.00;;;9.37;57.43
73700;BME280;62005;50.082;8.988;2024-03-08T11:22:22;100162.97;;;9.55;58.28
73700;BME280;62005;50.082;8.988;2024-03-08T11:24:52;100162.84;;;9.68;57.92
73700;BME280;62005;50.082;8.988;2024-03-08T11:27:18;100157.47;;;9.68;57.83
73700;BME280;62005;50.082;8.988;2024-03-08T11:29:59;100130.94;;;9.59;57.63
73700;BME280;62005;50.082;8.988;2024-03-08T11:32:27;100158.31;;;9.62;56.80
73700;BME280;62005;50.082;8.988;2024-03-08T11:34:53;100152.19;;;9.55;58.38
73700;BME280;62005;50.082;8.988;2024-03-08T11:37:20;100150.69;;;9.59;58.30
73700;BME280;62005;50.082;8.988;2024-03-08T11:39:50;100147.31;;;9.64;59.04
73700;BME280;62005;50.082;8.988;2024-03-08T11:42:16;100136.66;;;9.69;58.26
73700;BME280;62005;50.082;8.988;2024-03-08T11:44:45;100127.16;;;9.66;58.25
73700;BME280;62005;50.082;8.988;2024-03-08T11:47:11;100126.56;;;9.64;58.77
73700;BME280;62005;50.082;8.988;2024-03-08T11:49:38;100126.31;;;9.66;58.45
73700;BME280;62005;50.082;8.988;2024-03-08T11:52:04;100115.16;;;9.62;57.51
73700;BME280;62005;50.082;8.988;2024-03-08T11:54:30;100116.81;;;9.63;57.33
73700;BME280;62005;50.082;8.988;2024-03-08T11:56:56;100108.25;;;9.66;57.52
73700;BME280;62005;50.082;8.988;2024-03-08T11:59:27;100105.88;;;9.76;58.24
73700;BME280;62005;50.082;8.988;2024-03-08T12:02:06;100097.63;;;9.71;56.96
73700;BME280;62005;50.082;8.988;2024-03-08T12:04:32;100097.84;;;9.70;57.73
73700;BME280;62005;50.082;8.988;2024-03-08T12:07:01;100097.19;;;9.74;57.72
73700;BME280;62005;50.082;8.988;2024-03-08T12:09:28;100096.28;;;9.80;57.97
73700;BME280;62005;50.082;8.988;2024-03-08T12:11:54;100102.88;;;9.84;58.35
73700;BME280;62005;50.082;8.988;2024-03-08T12:14:19;100081.28;;;9.84;58.01
73700;BME280;62005;50.082;8.988;2024-03-08T12:16:46;100084.97;;;9.90;57.33
73700;BME280;62005;50.082;8.988;2024-03-08T12:19:12;100067.19;;;9.82;58.26
73700;BME280;62005;50.082;8.988;2024-03-08T12:21:37;100079.19;;;9.86;58.25
73700;BME280;62005;50.082;8.988;2024-03-08T12:24:10;100058.78;;;9.90;57.38
73700;BME280;62005;50.082;8.988;2024-03-08T12:26:37;100026.09;;;9.80;57.33
73700;BME280;62005;50.082;8.988;2024-03-08T12:29:19;100065.53;;;10.17;57.21
73700;BME280;62005;50.082;8.988;2024-03-08T12:31:52;100032.53;;;9.97;57.61
73700;BME280;62005;50.082;8.988;2024-03-08T12:34:21;100043.00;;;10.05;56.76
73700;BME280;62005;50.082;8.988;2024-03-08T12:36:48;100053.81;;;10.23;58.77
73700;BME280;62005;50.082;8.988;2024-03-08T12:39:17;99984.03;;;9.91;58.98
73700;BME280;62005;50.082;8.988;2024-03-08T12:41:47;100008.00;;;10.17;57.02
73700;BME280;62005;50.082;8.988;2024-03-08T12:44:12;100044.03;;;10.40;57.84
73700;BME280;62005;50.082;8.988;2024-03-08T12:46:38;100032.31;;;10.46;56.44
73700;BME280;62005;50.082;8.988;2024-03-08T12:49:11;100043.84;;;10.53;55.66
73700;BME280;62005;50.082;8.988;2024-03-08T12:51:38;100044.31;;;10.50;56.26
73700;BME280;62005;50.082;8.988;2024-03-08T12:54:07;100017.94;;;10.34;56.13
73700;BME280;62005;50.082;8.988;2024-03-08T12:56:33;100026.69;;;10.60;56.83
73700;BME280;62005;50.082;8.988;2024-03-08T12:59:00;100004.09;;;10.42;56.95
73700;BME280;62005;50.082;8.988;2024-03-08T13:01:27;100017.56;;;10.61;57.47
73700;BME280;62005;50.082;8.988;2024-03-08T13:03:53;99991.44;;;10.54;57.67
73700;BME280;62005;50.082;8.988;2024-03-08T13:06:19;99983.66;;;10.46;57.03